Time;durP1;ratioP1;P1;durP2;ratioP2;P2;SDS_P1;SDS_P2;PMS_P1;PMS_P2;Temp;Humidity;BMP_temperature;BMP_pressure;BME280_temperature;BME280_humidity;BME280_pressure;Samples;Min_cycle;Max_cycle;Signal;HPM_P1;HPM_P2
2023/12/05 00:01:13;;;;;;;24.10;11.63;;;3.60;99.90;;;;;;5016211;28;20129;-89
2023/12/05 00:03:39;;;;;;;25.80;11.43;;;3.70;99.90;;;;;;5016893;28;20030;-90
2023/12/05 00:06:12;;;;;;;23.17;11.70;;;3.70;99.90;;;;;;5017909;28;20056;-87
2023/12/05 00:08:38;;;;;;;20.52;10.77;;;3.70;99.90;;;;;;5018240;28;20026;-89
2023/12/05 00:11:07;;;;;;;27.92;13.38;;;3.70;99.90;;;;;;5018897;28;20084;-88
2023/12/05 00:13:34;;;;;;;24.73;12.45;;;3.70;99.90;;;;;;5017602;28;20487;-88
2023/12/05 00:16:00;;;;;;;25.67;11.73;;;3.70;99.90;;;;;;5017193;28;20183;-89
2023/12/05 00:18:26;;;;;;;21.55;10.93;;;3.80;99.90;;;;;;5017761;28;20181;-89
2023/12/05 00:20:53;;;;;;;28.73;11.45;;;3.80;99.90;;;;;;5017636;28;20080;-89
2023/12/05 00:23:19;;;;;;;25.50;12.95;;;3.80;99.90;;;;;;5010960;28;20084;-89
2023/12/05 00:25:45;;;;;;;28.35;11.98;;;3.80;99.90;;;;;;5014842;28;20027;-89
2023/12/05 00:28:10;;;;;;;19.92;11.13;;;3.80;99.90;;;;;;5032716;28;20057;-88
2023/12/05 00:30:36;;;;;;;23.80;11.50;;;3.80;99.90;;;;;;5017603;28;20088;-88
2023/12/05 00:33:02;;;;;;;25.42;11.85;;;3.80;99.90;;;;;;5017314;28;20030;-89
2023/12/05 00:35:27;;;;;;;26.15;12.02;;;3.70;99.90;;;;;;5020385;28;20061;-89
2023/12/05 00:37:53;;;;;;;25.80;12.20;;;3.70;99.90;;;;;;5018824;28;20089;-89
2023/12/05 00:40:19;;;;;;;25.17;11.63;;;3.70;99.90;;;;;;5019325;28;20030;-90
2023/12/05 00:42:45;;;;;;;26.50;12.82;;;3.70;99.90;;;;;;5018210;28;20033;-89
2023/12/05 00:47:57;;;;;;;22.63;11.88;;;3.80;99.90;;;;;;5019098;28;20040;-91
2023/12/05 00:50:23;;;;;;;22.92;10.93;;;3.70;99.90;;;;;;5019259;28;20026;-90
2023/12/05 00:52:48;;;;;;;24.77;11.73;;;3.70;99.90;;;;;;5020337;28;20031;-89
2023/12/05 00:55:14;;;;;;;23.05;11.65;;;3.70;99.90;;;;;;5017778;28;20055;-87
2023/12/05 00:57:40;;;;;;;26.02;12.48;;;3.70;99.90;;;;;;5016315;28;20392;-90
2023/12/05 01:00:11;;;;;;;22.30;11.57;;;3.70;99.90;;;;;;5016611;28;20026;-89
2023/12/05 01:02:37;;;;;;;24.13;11.88;;;3.70;99.90;;;;;;5017520;28;20531;-88
2023/12/05 01:05:03;;;;;;;22.90;11.48;;;3.70;99.90;;;;;;5019191;28;20026;-90
2023/12/05 01:07:29;;;;;;;22.38;11.55;;;3.70;99.90;;;;;;5017559;28;20068;-89
2023/12/05 01:09:54;;;;;;;22.85;10.88;;;3.60;99.90;;;;;;5015014;28;20397;-89
2023/12/05 01:12:20;;;;;;;22.73;11.77;;;3.70;99.90;;;;;;5013807;28;20089;-88
2023/12/05 01:14:46;;;;;;;22.42;10.45;;;3.70;99.90;;;;;;5016039;28;20060;-89
2023/12/05 01:17:12;;;;;;;22.73;10.43;;;3.70;99.90;;;;;;5017839;28;20038;-89
2023/12/05 01:19:38;;;;;;;21.83;10.10;;;3.70;99.90;;;;;;5016723;28;20018;-90
2023/12/05 01:22:04;;;;;;;21.52;10.15;;;3.70;99.90;;;;;;5016561;28;20484;-90
2023/12/05 01:24:30;;;;;;;21.88;10.73;;;3.70;99.90;;;;;;5016490;28;20095;-88
2023/12/05 01:26:56;;;;;;;24.20;10.68;;;3.70;99.90;;;;;;5018227;28;20432;-87
2023/12/05 01:29:22;;;;;;;19.60;10.15;;;3.80;99.90;;;;;;5016311;28;20396;-88
2023/12/05 01:31:47;;;;;;;24.98;11.10;;;3.70;99.90;;;;;;5016178;28;20424;-88
2023/12/05 01:34:13;;;;;;;21.75;10.75;;;3.70;99.90;;;;;;5017078;28;20030;-89
2023/12/05 01:36:40;;;;;;;21.23;10.00;;;3.70;99.90;;;;;;5017205;28;20072;-89
2023/12/05 01:39:07;;;;;;;23.58;11.07;;;3.60;99.90;;;;;;5018005;28;20088;-90
2023/12/05 01:41:33;;;;;;;23.33;10.05;;;3.70;99.90;;;;;;5017873;28;20480;-90
2023/12/05 01:43:59;;;;;;;22.77;10.90;;;3.70;99.90;;;;;;5018095;28;20076;-90
2023/12/05 01:46:24;;;;;;;19.95;10.70;;;3.70;99.90;;;;;;5017146;28;20029;-91
2023/12/05 01:48:50;;;;;;;22.83;11.27;;;3.70;99.90;;;;;;5014113;28;20057;-86
2023/12/05 01:51:16;;;;;;;19.77;9.85;;;3.60;99.90;;;;;;5014729;28;20030;-91
2023/12/05 01:53:43;;;;;;;20.90;9.93;;;3.60;99.90;;;;;;5016562;28;20395;-90
2023/12/05 01:56:10;;;;;;;20.92;9.15;;;3.70;99.90;;;;;;5017378;28;20492;-85
2023/12/05 01:58:37;;;;;;;22.60;10.55;;;3.70;99.90;;;;;;5015249;28;20462;-87
2023/12/05 02:01:07;;;;;;;18.30;9.38;;;3.60;99.90;;;;;;5017374;28;20058;-91
2023/12/05 02:03:34;;;;;;;16.77;8.93;;;3.70;99.90;;;;;;5018421;28;20510;-90
2023/12/05 02:06:00;;;;;;;21.05;9.63;;;3.60;99.90;;;;;;5014978;28;20030;-88
2023/12/05 02:08:29;;;;;;;18.75;9.73;;;3.70;99.90;;;;;;5014906;28;20028;-91
2023/12/05 02:10:54;;;;;;;;;;;3.60;99.90;;;;;;5017355;28;20460;-90
2023/12/05 02:13:20;;;;;;;19.35;8.98;;;3.60;99.90;;;;;;5018003;28;19971;-90
2023/12/05 02:15:54;;;;;;;17.75;8.57;;;3.60;99.90;;;;;;5018110;28;20121;-92
2023/12/05 02:18:25;;;;;;;22.92;11.10;;;3.70;99.90;;;;;;5018056;28;20452;-92
2023/12/05 02:21:11;;;;;;;21.48;9.55;;;3.70;99.90;;;;;;5017487;28;20491;-91
2023/12/05 02:23:58;;;;;;;18.15;9.05;;;3.60;99.90;;;;;;5004015;28;20030;-91
2023/12/05 02:26:23;;;;;;;21.65;9.00;;;3.70;99.90;;;;;;5017284;28;20492;-93
2023/12/05 02:28:50;;;;;;;20.75;10.25;;;3.70;99.90;;;;;;5018855;28;20046;-91
2023/12/05 02:31:15;;;;;;;21.33;9.00;;;3.60;99.90;;;;;;5017956;28;20506;-91
2023/12/05 02:33:41;;;;;;;19.73;8.63;;;3.60;99.90;;;;;;5018755;28;20057;-91
2023/12/05 02:36:11;;;;;;;18.85;8.98;;;3.60;99.90;;;;;;5019035;28;20037;-91
2023/12/05 02:38:43;;;;;;;16.83;7.82;;;3.60;99.90;;;;;;5017973;28;20044;-90
2023/12/05 02:41:28;;;;;;;15.18;7.90;;;3.60;99.90;;;;;;5019833;28;20033;-89
2023/12/05 02:44:12;;;;;;;18.33;8.73;;;3.60;99.90;;;;;;5017052;28;20025;-91
2023/12/05 02:46:40;;;;;;;19.00;8.73;;;3.60;99.90;;;;;;5019006;28;20518;-91
2023/12/05 02:49:07;;;;;;;17.30;8.85;;;3.50;99.90;;;;;;5016866;28;20088;-90
2023/12/05 02:51:33;;;;;;;16.65;8.35;;;3.50;99.90;;;;;;5016855;28;20041;-90
2023/12/05 02:54:01;;;;;;;19.15;9.18;;;3.50;99.90;;;;;;5016143;28;20492;-91
2023/12/05 02:56:29;;;;;;;15.23;8.13;;;3.50;99.90;;;;;;5016830;28;20496;-89
2023/12/05 02:58:54;;;;;;;17.20;7.78;;;3.50;99.90;;;;;;5014747;28;20022;-89
2023/12/05 03:01:21;;;;;;;13.52;7.35;;;3.50;99.90;;;;;;5016533;28;20040;-88
2023/12/05 03:03:46;;;;;;;15.10;8.50;;;3.50;99.90;;;;;;5016457;28;20030;-89
2023/12/05 03:06:12;;;;;;;16.20;7.63;;;3.50;99.90;;;;;;5015361;28;20026;-90
2023/12/05 03:08:38;;;;;;;21.45;9.02;;;3.50;99.90;;;;;;5016207;28;20049;-90
2023/12/05 03:11:03;;;;;;;15.85;8.35;;;3.50;99.90;;;;;;5014502;28;20125;-89
2023/12/05 03:13:29;;;;;;;16.98;7.90;;;3.60;99.90;;;;;;5016245;28;20089;-89
2023/12/05 03:15:55;;;;;;;16.00;8.60;;;3.50;99.90;;;;;;5016089;28;20022;-90
2023/12/05 03:18:20;;;;;;;15.88;7.70;;;3.50;99.90;;;;;;5016097;28;20041;-89
2023/12/05 03:20:46;;;;;;;17.10;8.15;;;3.50;99.90;;;;;;5016756;28;20037;-88
2023/12/05 03:23:12;;;;;;;17.58;8.07;;;3.40;99.90;;;;;;5014285;28;20117;-89
2023/12/05 03:25:37;;;;;;;16.75;7.30;;;3.30;99.90;;;;;;5015410;28;20076;-89
2023/12/05 03:28:03;;;;;;;17.88;8.75;;;3.30;99.90;;;;;;5013953;28;20136;-89
2023/12/05 03:30:29;;;;;;;18.13;8.15;;;3.30;99.90;;;;;;5015299;28;20022;-89
2023/12/05 03:32:55;;;;;;;16.75;8.90;;;3.30;99.90;;;;;;5015353;28;20065;-91
2023/12/05 03:35:20;;;;;;;17.65;8.48;;;3.30;99.90;;;;;;5005518;28;20361;-90
2023/12/05 03:37:46;;;;;;;14.60;7.75;;;3.30;99.90;;;;;;5004972;28;20044;-91
2023/12/05 03:40:12;;;;;;;13.45;7.03;;;3.30;99.90;;;;;;5014065;28;20035;-90
2023/12/05 03:42:37;;;;;;;12.43;7.28;;;3.30;99.90;;;;;;5013133;28;20504;-89
2023/12/05 03:45:03;;;;;;;14.60;6.57;;;3.30;99.90;;;;;;5013603;28;20030;-90
2023/12/05 03:47:29;;;;;;;17.65;8.35;;;3.40;99.90;;;;;;5015873;28;20389;-89
2023/12/05 03:49:55;;;;;;;19.13;8.13;;;3.30;99.90;;;;;;5014339;28;20029;-93
2023/12/05 03:52:20;;;;;;;14.18;7.00;;;3.20;99.90;;;;;;5016969;28;20117;-90
2023/12/05 03:54:46;;;;;;;12.70;7.65;;;3.20;99.90;;;;;;5016772;28;20092;-92
2023/12/05 03:57:11;;;;;;;19.80;8.25;;;3.20;99.90;;;;;;5014644;28;20014;-91
2023/12/05 03:59:37;;;;;;;17.08;7.70;;;3.10;99.90;;;;;;5016016;28;20029;-91
2023/12/05 04:02:03;;;;;;;16.27;7.10;;;3.20;99.90;;;;;;5016604;28;20030;-91
2023/12/05 04:04:29;;;;;;;15.68;7.85;;;3.10;99.90;;;;;;5015839;28;20021;-90
2023/12/05 04:06:54;;;;;;;18.90;8.27;;;3.10;99.90;;;;;;5014177;28;20171;-90
2023/12/05 04:09:20;;;;;;;16.38;7.55;;;3.10;99.90;;;;;;5014747;28;20527;-89
2023/12/05 04:11:46;;;;;;;19.20;8.93;;;3.10;99.90;;;;;;5013540;28;20357;-90
2023/12/05 04:14:11;;;;;;;17.25;8.10;;;3.10;99.90;;;;;;5014484;28;20116;-90
2023/12/05 04:16:38;;;;;;;19.40;8.13;;;3.10;99.90;;;;;;5016580;28;20496;-91
2023/12/05 04:19:03;;;;;;;20.25;9.38;;;3.10;99.90;;;;;;5013661;28;20113;-90
2023/12/05 04:21:29;;;;;;;13.55;7.00;;;3.00;99.90;;;;;;5015127;28;20061;-90
2023/12/05 04:23:55;;;;;;;17.20;8.65;;;3.10;99.90;;;;;;5012364;28;20030;-90
2023/12/05 04:26:21;;;;;;;16.77;7.65;;;3.10;99.90;;;;;;5015071;28;20447;-90
2023/12/05 04:28:47;;;;;;;15.15;7.30;;;3.10;99.90;;;;;;5014633;28;20030;-90
2023/12/05 04:31:13;;;;;;;18.42;8.02;;;3.10;99.90;;;;;;5014181;28;20033;-89
2023/12/05 04:33:43;;;;;;;15.10;7.95;;;3.00;99.90;;;;;;5013189;28;20042;-90
2023/12/05 04:36:09;;;;;;;15.90;8.43;;;3.00;99.90;;;;;;5013600;28;20059;-88
2023/12/05 04:38:38;;;;;;;17.60;8.20;;;3.00;99.90;;;;;;5014174;28;20477;-90
2023/12/05 04:41:04;;;;;;;17.73;7.88;;;3.00;99.90;;;;;;5014124;28;20477;-88
2023/12/05 04:43:31;;;;;;;18.55;8.00;;;2.90;99.90;;;;;;5013312;28;20079;-88
2023/12/05 04:45:57;;;;;;;23.33;8.63;;;2.90;99.90;;;;;;5013763;28;20030;-89
2023/12/05 04:48:22;;;;;;;15.65;8.43;;;2.90;99.90;;;;;;5015550;28;20538;-89
2023/12/05 04:50:48;;;;;;;18.30;8.00;;;2.90;99.90;;;;;;5017701;28;20034;-88
2023/12/05 04:53:14;;;;;;;17.05;7.85;;;3.00;99.90;;;;;;5017962;28;20127;-90
2023/12/05 04:55:39;;;;;;;18.80;9.10;;;2.90;99.90;;;;;;5016236;28;20412;-90
2023/12/05 04:58:05;;;;;;;20.90;8.10;;;2.90;99.90;;;;;;5003908;28;20110;-91
2023/12/05 05:00:32;;;;;;;17.40;7.95;;;2.90;99.90;;;;;;5018713;28;20033;-91
2023/12/05 05:02:57;;;;;;;19.27;8.32;;;2.90;99.90;;;;;;5018578;28;20029;-91
2023/12/05 05:05:23;;;;;;;16.60;7.97;;;2.90;99.90;;;;;;5014640;28;20026;-89
2023/12/05 05:07:49;;;;;;;16.35;8.00;;;2.90;99.90;;;;;;5016897;28;20188;-90
2023/12/05 05:10:14;;;;;;;20.67;8.25;;;2.90;99.90;;;;;;5017538;28;20026;-88
2023/12/05 05:12:40;;;;;;;17.63;7.88;;;2.80;99.90;;;;;;5017458;28;20037;-89
2023/12/05 05:15:08;;;;;;;19.35;8.43;;;2.70;99.90;;;;;;5001955;28;20050;-89
2023/12/05 05:17:34;;;;;;;21.80;7.95;;;2.70;99.90;;;;;;5018136;28;20404;-89
2023/12/05 05:20:01;;;;;;;18.15;7.68;;;2.70;99.90;;;;;;5017824;28;20112;-87
2023/12/05 05:22:27;;;;;;;17.92;8.45;;;2.60;99.90;;;;;;5019661;28;20475;-89
2023/12/05 05:24:52;;;;;;;21.45;9.05;;;2.70;99.90;;;;;;5017868;28;20030;-90
2023/12/05 05:27:18;;;;;;;16.35;7.88;;;2.60;99.90;;;;;;5016861;28;20488;-89
2023/12/05 05:29:44;;;;;;;17.27;8.32;;;2.70;99.90;;;;;;5018725;28;20125;-89
2023/12/05 05:32:09;;;;;;;13.27;7.55;;;2.70;99.90;;;;;;5019021;28;20063;-87
2023/12/05 05:34:35;;;;;;;15.07;7.07;;;2.70;99.90;;;;;;5017627;28;20034;-91
2023/12/05 05:37:01;;;;;;;14.05;6.50;;;2.80;99.90;;;;;;5019511;28;20487;-89
2023/12/05 05:39:26;;;;;;;15.07;6.93;;;2.80;99.90;;;;;;5017435;28;20025;-89
2023/12/05 05:41:52;;;;;;;16.13;8.10;;;2.70;99.90;;;;;;5018298;28;20085;-89
2023/12/05 05:44:18;;;;;;;16.10;6.35;;;2.70;99.90;;;;;;5017845;28;20514;-90
2023/12/05 05:46:44;;;;;;;15.95;8.02;;;2.60;99.90;;;;;;5017662;28;20385;-89
2023/12/05 05:49:10;;;;;;;17.35;7.50;;;2.70;99.90;;;;;;5017854;28;20072;-89
2023/12/05 05:51:35;;;;;;;15.43;7.38;;;2.70;99.90;;;;;;5016933;28;20408;-89
2023/12/05 05:54:01;;;;;;;13.20;6.95;;;2.70;99.90;;;;;;5016742;28;20034;-88
2023/12/05 05:56:33;;;;;;;15.48;7.18;;;2.70;99.90;;;;;;5016722;28;20053;-89
2023/12/05 05:59:00;;;;;;;14.68;6.68;;;2.90;99.90;;;;;;5016765;28;20033;-89
2023/12/05 06:01:26;;;;;;;13.05;6.38;;;2.80;99.90;;;;;;5014287;28;20037;-90
2023/12/05 06:03:51;;;;;;;13.23;6.68;;;2.80;99.90;;;;;;5013129;28;20029;-89
2023/12/05 06:06:17;;;;;;;12.25;6.50;;;2.80;99.90;;;;;;5015488;28;20121;-88
2023/12/05 06:08:43;;;;;;;15.90;7.22;;;2.80;99.90;;;;;;5014427;28;20022;-89
2023/12/05 06:11:09;;;;;;;14.30;7.70;;;2.80;99.90;;;;;;5015316;28;20436;-91
2023/12/05 06:13:34;;;;;;;12.68;7.22;;;2.70;99.90;;;;;;5014950;28;20043;-90
2023/12/05 06:16:02;;;;;;;12.20;6.45;;;2.70;99.90;;;;;;5013332;28;20056;-88
2023/12/05 06:18:28;;;;;;;15.75;7.00;;;2.80;99.90;;;;;;5014609;28;20041;-90
2023/12/05 06:20:56;;;;;;;14.93;6.38;;;2.70;99.90;;;;;;5015123;28;20539;-89
2023/12/05 06:23:22;;;;;;;15.10;6.32;;;2.60;99.90;;;;;;5014990;28;20448;-90
2023/12/05 06:25:47;;;;;;;14.15;6.40;;;2.60;99.90;;;;;;5014334;28;20033;-90
2023/12/05 06:28:13;;;;;;;16.65;7.63;;;2.70;99.90;;;;;;5013601;28;20077;-89
2023/12/05 06:30:39;;;;;;;15.00;6.97;;;2.70;99.90;;;;;;5032244;28;20022;-90
2023/12/05 06:33:04;;;;;;;16.33;7.22;;;2.60;99.90;;;;;;5016229;28;20038;-89
2023/12/05 06:35:30;;;;;;;18.30;7.07;;;2.60;99.90;;;;;;5016153;28;20471;-89
2023/12/05 06:37:56;;;;;;;15.27;7.57;;;2.60;99.90;;;;;;5014758;28;20026;-90
2023/12/05 06:40:22;;;;;;;21.58;9.02;;;2.60;99.90;;;;;;5002186;28;20037;-87
2023/12/05 06:42:47;;;;;;;17.55;8.52;;;2.60;99.90;;;;;;5019104;28;20022;-89
2023/12/05 06:45:13;;;;;;;20.25;8.30;;;2.50;99.90;;;;;;5018233;28;20052;-89
2023/12/05 06:47:39;;;;;;;21.25;9.18;;;2.60;99.90;;;;;;5016230;28;20428;-90
2023/12/05 06:50:10;;;;;;;17.75;8.38;;;2.70;99.90;;;;;;5015796;28;20017;-90
2023/12/05 06:52:40;;;;;;;17.25;7.85;;;2.80;99.90;;;;;;5011905;28;20056;-89
2023/12/05 06:55:07;;;;;;;21.10;8.98;;;2.70;99.90;;;;;;5015621;28;20433;-89
2023/12/05 06:57:33;;;;;;;25.63;8.35;;;2.70;99.90;;;;;;5010422;28;20065;-91
2023/12/05 06:59:59;;;;;;;20.80;8.70;;;2.70;99.90;;;;;;5015044;28;20025;-88
2023/12/05 07:02:25;;;;;;;25.17;9.65;;;2.70;99.90;;;;;;5013461;28;20037;-91
2023/12/05 07:04:50;;;;;;;21.05;8.18;;;2.60;99.90;;;;;;5017047;28;20034;-90
2023/12/05 07:07:16;;;;;;;27.83;8.15;;;2.70;99.90;;;;;;5025291;28;20056;-91
2023/12/05 07:09:45;;;;;;;21.92;9.43;;;2.70;99.90;;;;;;5024376;28;20018;-92
2023/12/05 07:12:10;;;;;;;22.25;8.85;;;2.70;99.90;;;;;;5021956;28;20037;-91
2023/12/05 07:14:36;;;;;;;19.20;8.75;;;2.70;99.90;;;;;;5018457;28;20034;-90
2023/12/05 07:17:02;;;;;;;17.10;8.02;;;2.70;99.90;;;;;;5015190;28;20554;-89
2023/12/05 07:19:28;;;;;;;22.10;9.90;;;2.80;99.90;;;;;;5016298;28;20022;-90
2023/12/05 07:21:54;;;;;;;20.40;8.98;;;2.80;99.90;;;;;;5017009;28;20029;-89
2023/12/05 07:24:20;;;;;;;21.98;9.60;;;2.90;99.90;;;;;;5018351;28;20168;-88
2023/12/05 07:26:48;;;;;;;20.90;9.07;;;2.90;99.90;;;;;;5016591;28;20080;-89
2023/12/05 07:29:14;;;;;;;28.80;9.93;;;2.90;99.90;;;;;;5014513;28;20070;-89
2023/12/05 07:31:39;;;;;;;22.55;9.63;;;2.90;99.90;;;;;;5018255;28;20040;-89
2023/12/05 07:34:05;;;;;;;26.30;9.32;;;2.80;99.90;;;;;;5018128;28;20022;-89
2023/12/05 07:36:31;;;;;;;21.27;9.15;;;2.80;99.90;;;;;;5020559;28;20037;-88
2023/12/05 07:38:56;;;;;;;20.55;8.88;;;2.90;99.90;;;;;;5020952;28;20026;-88
2023/12/05 07:41:22;;;;;;;26.48;8.85;;;2.90;99.90;;;;;;5019684;28;20041;-90
2023/12/05 07:43:49;;;;;;;22.10;9.15;;;2.90;99.90;;;;;;5019996;28;20029;-89
2023/12/05 07:46:15;;;;;;;20.42;9.50;;;2.80;99.90;;;;;;5019989;28;20018;-89
2023/12/05 07:48:41;;;;;;;21.05;9.43;;;2.90;99.90;;;;;;5017405;28;20021;-89
2023/12/05 07:51:07;;;;;;;20.80;9.35;;;2.80;99.90;;;;;;5021659;28;20084;-89
2023/12/05 07:53:33;;;;;;;23.00;9.95;;;2.90;99.90;;;;;;5021060;28;20038;-89
2023/12/05 07:55:59;;;;;;;21.30;9.40;;;2.90;99.90;;;;;;5019507;28;20029;-89
2023/12/05 07:58:25;;;;;;;20.33;10.15;;;2.90;99.90;;;;;;5017321;28;20448;-89
2023/12/05 08:00:51;;;;;;;22.27;10.05;;;2.90;99.90;;;;;;5018938;28;20026;-86
2023/12/05 08:03:16;;;;;;;19.48;8.85;;;2.90;99.90;;;;;;5018791;28;20447;-89
2023/12/05 08:05:42;;;;;;;25.75;10.50;;;2.90;99.90;;;;;;5015584;28;20036;-89
2023/12/05 08:08:08;;;;;;;24.85;9.75;;;2.90;99.90;;;;;;5018118;28;20025;-88
2023/12/05 08:10:34;;;;;;;23.85;10.45;;;3.00;99.90;;;;;;5015694;28;20033;-86
2023/12/05 08:13:00;;;;;;;24.92;9.93;;;2.90;99.90;;;;;;5018441;28;20069;-88
2023/12/05 08:15:25;;;;;;;23.08;9.77;;;2.90;99.90;;;;;;5017513;28;20022;-87
2023/12/05 08:17:51;;;;;;;24.42;9.48;;;2.80;99.90;;;;;;5017282;28;20038;-88
2023/12/05 08:20:16;;;;;;;24.95;9.20;;;2.80;99.90;;;;;;5009603;28;20026;-88
2023/12/05 08:22:42;;;;;;;20.60;8.75;;;2.80;99.90;;;;;;5016640;28;20484;-87
2023/12/05 08:25:10;;;;;;;18.35;8.77;;;2.70;99.90;;;;;;5018655;28;20026;-89
2023/12/05 08:27:36;;;;;;;21.65;9.23;;;2.70;99.90;;;;;;5016533;28;20034;-86
2023/12/05 08:30:02;;;;;;;16.67;8.48;;;2.80;99.90;;;;;;5015643;28;20030;-88
2023/12/05 08:32:28;;;;;;;21.63;9.23;;;2.90;99.90;;;;;;5015662;28;20388;-87
2023/12/05 08:34:54;;;;;;;23.40;10.55;;;2.90;99.90;;;;;;5017338;28;20034;-88
2023/12/05 08:37:20;;;;;;;23.77;9.93;;;2.90;99.90;;;;;;5016716;28;20116;-89
2023/12/05 08:39:45;;;;;;;29.83;10.75;;;3.00;99.90;;;;;;5016691;28;20029;-87
2023/12/05 08:42:13;;;;;;;25.60;9.80;;;3.00;99.90;;;;;;5018940;28;20022;-89
2023/12/05 08:44:39;;;;;;;22.75;10.43;;;3.00;99.90;;;;;;5018475;28;20026;-88
2023/12/05 08:47:05;;;;;;;23.45;10.65;;;3.00;99.90;;;;;;5018875;28;20554;-88
2023/12/05 08:49:31;;;;;;;23.23;9.52;;;3.10;99.90;;;;;;5019360;28;20026;-88
2023/12/05 08:51:56;;;;;;;24.15;10.05;;;3.00;99.90;;;;;;5017414;28;20033;-88
2023/12/05 08:54:22;;;;;;;28.38;9.85;;;3.00;99.90;;;;;;5018698;28;20030;-87
2023/12/05 08:56:48;;;;;;;25.08;10.18;;;2.90;99.90;;;;;;5011143;28;20026;-87
2023/12/05 08:59:14;;;;;;;19.25;9.35;;;2.80;99.90;;;;;;5018376;28;20026;-89
2023/12/05 09:01:39;;;;;;;27.02;10.18;;;2.70;99.90;;;;;;5028707;28;20546;-87
2023/12/05 09:04:07;;;;;;;24.23;9.95;;;2.80;99.90;;;;;;5018467;28;20022;-88
2023/12/05 09:06:33;;;;;;;21.20;8.68;;;2.80;99.90;;;;;;5017934;28;20038;-88
2023/12/05 09:08:59;;;;;;;24.52;9.00;;;2.80;99.90;;;;;;5019057;28;20034;-88
2023/12/05 09:11:24;;;;;;;25.80;10.45;;;2.80;99.90;;;;;;5017235;28;20117;-87
2023/12/05 09:13:51;;;;;;;16.00;8.10;;;2.80;99.90;;;;;;5017690;28;20080;-88
2023/12/05 09:16:16;;;;;;;27.38;9.35;;;2.80;99.90;;;;;;5017874;28;20018;-89
2023/12/05 09:18:42;;;;;;;24.42;10.63;;;2.90;99.90;;;;;;5016458;28;20467;-88
2023/12/05 09:21:09;;;;;;;23.73;9.45;;;2.80;99.90;;;;;;5017307;28;20026;-87
2023/12/05 09:23:35;;;;;;;19.00;7.97;;;2.70;99.90;;;;;;5016635;28;20431;-89
2023/12/05 09:26:00;;;;;;;23.25;9.65;;;2.80;99.90;;;;;;5018065;28;20104;-88
2023/12/05 09:28:28;;;;;;;21.83;9.48;;;2.80;99.90;;;;;;5018439;28;20036;-88
2023/12/05 09:30:53;;;;;;;18.70;9.05;;;2.90;99.90;;;;;;5016196;28;20489;-88
2023/12/05 09:33:20;;;;;;;18.73;8.88;;;2.90;99.90;;;;;;5016203;28;20088;-87
2023/12/05 09:35:46;;;;;;;21.50;9.63;;;2.90;99.90;;;;;;5016839;28;20026;-87
2023/12/05 09:38:14;;;;;;;25.30;10.68;;;2.80;99.90;;;;;;5016375;28;20097;-88
2023/12/05 09:40:41;;;;;;;24.00;8.90;;;2.80;99.90;;;;;;5015553;28;20064;-87
2023/12/05 09:43:08;;;;;;;27.50;9.57;;;2.80;99.90;;;;;;5016750;28;20404;-87
2023/12/05 09:45:39;;;;;;;25.90;10.45;;;2.70;99.90;;;;;;5015393;28;20026;-88
2023/12/05 09:48:08;;;;;;;29.45;10.57;;;2.60;99.90;;;;;;5018808;28;20126;-87
2023/12/05 09:50:36;;;;;;;23.35;10.75;;;2.70;99.90;;;;;;5015935;28;20053;-87
2023/12/05 09:53:02;;;;;;;30.23;10.43;;;2.70;99.90;;;;;;5016594;28;20103;-89
2023/12/05 09:55:28;;;;;;;25.95;10.98;;;2.80;99.90;;;;;;5017035;28;20400;-91
2023/12/05 09:57:57;;;;;;;28.35;11.10;;;2.70;99.90;;;;;;5014879;28;20014;-88
2023/12/05 10:00:24;;;;;;;26.75;10.50;;;2.80;99.90;;;;;;5017926;28;20025;-92
2023/12/05 10:02:53;;;;;;;35.08;12.13;;;2.70;99.90;;;;;;5026433;28;20033;-90
2023/12/05 10:05:20;;;;;;;26.23;10.70;;;2.70;99.90;;;;;;5022088;28;20025;-88
2023/12/05 10:07:49;;;;;;;27.45;10.02;;;2.70;99.90;;;;;;5023860;28;20018;-90
2023/12/05 10:10:17;;;;;;;27.00;10.38;;;2.70;99.90;;;;;;5023271;28;20089;-92
2023/12/05 10:12:44;;;;;;;27.40;10.00;;;2.80;99.90;;;;;;5022394;28;20034;-91
2023/12/05 10:15:10;;;;;;;24.45;9.93;;;2.90;99.90;;;;;;5023178;28;20037;-91
2023/12/05 10:17:35;;;;;;;30.85;10.63;;;3.00;99.90;;;;;;5010922;28;20046;-89
2023/12/05 10:20:04;;;;;;;25.75;10.85;;;3.00;99.90;;;;;;5012963;28;20018;-90
2023/12/05 10:22:31;;;;;;;24.38;10.38;;;2.90;99.90;;;;;;5019742;28;20042;-91
2023/12/05 10:24:59;;;;;;;30.15;10.20;;;3.00;99.90;;;;;;5021994;28;20082;-92
2023/12/05 10:27:26;;;;;;;29.53;10.97;;;3.00;99.90;;;;;;5021591;28;20050;-91
2023/12/05 10:29:53;;;;;;;26.52;11.75;;;3.00;99.90;;;;;;5017026;28;20026;-91
2023/12/05 10:32:25;;;;;;;35.60;12.07;;;3.00;99.90;;;;;;5017904;28;20491;-91
2023/12/05 10:34:53;;;;;;;22.65;9.93;;;3.10;99.90;;;;;;5016598;28;20481;-91
2023/12/05 10:37:26;;;;;;;31.67;12.50;;;3.00;99.90;;;;;;5022548;28;20030;-91
2023/12/05 10:39:53;;;;;;;31.77;11.50;;;2.90;99.90;;;;;;5022357;28;20041;-89
2023/12/05 10:42:20;;;;;;;31.55;12.15;;;2.90;99.90;;;;;;5024119;28;20034;-92
2023/12/05 10:44:48;;;;;;;34.22;12.60;;;3.00;99.90;;;;;;5021059;28;20021;-89
2023/12/05 10:47:14;;;;;;;33.10;12.45;;;3.10;99.90;;;;;;5022593;28;20026;-91
2023/12/05 10:49:44;;;;;;;34.88;11.25;;;3.10;99.90;;;;;;5026666;28;20053;-89
2023/12/05 10:52:14;;;;;;;33.22;12.38;;;3.20;99.90;;;;;;5023498;28;20034;-89
2023/12/05 10:54:40;;;;;;;30.13;12.48;;;3.10;99.90;;;;;;5022689;28;20041;-92
2023/12/05 10:57:09;;;;;;;30.67;11.25;;;3.10;99.90;;;;;;5020194;28;20018;-92
2023/12/05 10:59:42;;;;;;;32.20;11.82;;;3.00;99.90;;;;;;5020445;28;20038;-92
2023/12/05 11:02:19;;;;;;;32.78;11.27;;;3.10;99.90;;;;;;5025109;28;20036;-91
2023/12/05 11:04:45;;;;;;;25.90;9.45;;;3.10;99.90;;;;;;5018763;28;20022;-91
2023/12/05 11:07:13;;;;;;;33.25;12.50;;;3.10;99.90;;;;;;5022563;28;20025;-92
2023/12/05 11:09:42;;;;;;;41.45;13.07;;;3.00;99.90;;;;;;5023680;28;20038;-90
2023/12/05 11:12:09;;;;;;;34.67;13.82;;;3.00;99.90;;;;;;5015920;28;20032;-92
2023/12/05 11:14:42;;;;;;;38.60;13.63;;;3.10;99.90;;;;;;5032015;28;20026;-92
2023/12/05 11:17:12;;;;;;;39.15;13.63;;;3.20;99.90;;;;;;5026700;28;20042;-90
2023/12/05 11:20:10;;;;;;;37.30;13.68;;;3.10;99.90;;;;;;5029949;28;20022;-91
2023/12/05 11:22:49;;;;;;;32.97;11.60;;;3.10;99.90;;;;;;5023672;28;20077;-92
2023/12/05 11:25:28;;;;;;;34.90;12.48;;;3.10;99.90;;;;;;5024160;28;20029;-92
2023/12/05 11:28:32;;;;;;;35.20;12.18;;;3.10;99.90;;;;;;5027472;28;20030;-93
2023/12/05 11:31:06;;;;;;;36.30;12.80;;;3.10;99.90;;;;;;4977170;28;20035;-93
2023/12/05 11:34:01;;;;;;;41.00;13.00;;;3.20;99.90;;;;;;5021812;28;20049;-90
2023/12/05 11:36:51;;;;;;;33.20;12.52;;;3.20;99.90;;;;;;5001952;28;20503;-91
2023/12/05 11:39:19;;;;;;;39.03;11.65;;;3.20;99.90;;;;;;4999631;28;20049;-92
2023/12/05 11:42:09;;;;;;;30.63;13.15;;;3.20;99.90;;;;;;5016338;28;20034;-91
2023/12/05 11:44:36;;;;;;;34.40;11.95;;;3.20;99.90;;;;;;4994998;28;20655;-91
2023/12/05 11:47:06;;;;;;;31.98;13.30;;;3.10;99.90;;;;;;5005566;28;20023;-94
2023/12/05 11:49:47;;;;;;;32.47;12.98;;;3.10;99.90;;;;;;5023587;28;20050;-92
2023/12/05 11:52:13;;;;;;;35.72;12.57;;;3.10;99.90;;;;;;5038031;28;20044;-91
2023/12/05 11:54:42;;;;;;;42.03;13.57;;;3.20;99.90;;;;;;5058497;28;20077;-91
2023/12/05 11:57:15;;;;;;;38.92;12.05;;;3.10;99.90;;;;;;5040966;28;20025;-85
2023/12/05 11:59:50;;;;;;;32.58;12.95;;;3.10;99.90;;;;;;5057634;28;20048;-89
2023/12/05 12:02:36;;;;;;;38.85;13.93;;;3.10;99.90;;;;;;5061118;28;20029;-94
2023/12/05 12:05:05;;;;;;;33.13;12.00;;;3.10;99.90;;;;;;5042471;28;20041;-88
2023/12/05 12:07:31;;;;;;;30.58;12.40;;;3.10;99.90;;;;;;5040678;28;20033;-89
2023/12/05 12:09:57;;;;;;;39.15;13.88;;;3.10;99.90;;;;;;5040525;28;20033;-91
2023/12/05 12:12:23;;;;;;;37.63;11.80;;;3.00;99.90;;;;;;5043851;28;20032;-87
2023/12/05 12:14:48;;;;;;;38.40;12.45;;;3.00;99.90;;;;;;5040318;28;20461;-89
2023/12/05 12:17:14;;;;;;;37.55;13.27;;;3.00;99.90;;;;;;5038457;28;20072;-89
2023/12/05 12:19:40;;;;;;;34.85;12.98;;;3.00;99.90;;;;;;5045760;28;20540;-88
2023/12/05 12:22:12;;;;;;;32.67;12.00;;;3.00;99.90;;;;;;5019483;28;20032;-92
2023/12/05 12:24:42;;;;;;;35.10;12.80;;;3.00;99.90;;;;;;5015698;28;20092;-89
2023/12/05 12:27:09;;;;;;;33.47;13.75;;;3.10;99.90;;;;;;5020069;28;20037;-86
2023/12/05 12:29:36;;;;;;;30.80;12.02;;;3.00;99.90;;;;;;5018360;28;20028;-87
2023/12/05 12:32:10;;;;;;;26.80;9.82;;;3.10;99.90;;;;;;5015862;28;20021;-82
2023/12/05 12:34:42;;;;;;;36.20;12.85;;;3.00;99.90;;;;;;5027096;28;20413;-88
2023/12/05 12:37:11;;;;;;;34.92;12.38;;;3.00;99.90;;;;;;5024012;28;20030;-90
2023/12/05 12:39:37;;;;;;;40.42;12.55;;;3.10;99.90;;;;;;5022398;28;20026;-89
2023/12/05 12:42:10;;;;;;;34.05;13.35;;;3.00;99.90;;;;;;5015986;28;20030;-86
2023/12/05 12:44:36;;;;;;;33.55;12.55;;;3.00;99.90;;;;;;5009567;28;20026;-85
2023/12/05 12:47:03;;;;;;;37.28;12.07;;;3.00;99.90;;;;;;5022100;28;20080;-86